Schnellsuche:     vonnach     am:               Ankunft heute   Abflug heute   
Wetterdaten des Sylter Flughafens. Alle Angaben sind ohne Gewähr.



Datum: 2017-12-13 19:10 UTC
   
Windrichtung: 190°
Windgeschwindigkeit: 9 - 19 Kt.
QNH: 986 hPa
Temperatur: 5 °C
Taupunkt: 4 °C
rel. Luftfeuchte: 98 %

METAR EDXW 131520Z 20017KT 2500 -RA OVC003 04/03 Q0990 RERA RMK ATIS NOV=

Wolkenhöhen in den letzten 48 Stunden:






 


Im Jettempo nach Sylt!



Lufthansa

Zürich, München und Frankfurt/Main
Die Lufthansa fliegt vom 21. April bis zum 20. Oktober 2018 nach Zürich, vom 23. Dezember bis zum 06. Januar 2019 nach München und vom 23. Dezember bis zum 13. Oktober 2018 nach Frankfurt/Main. Zur Seite der Lufthansa: www.lufthansa.de

Syltair

Hamburg
Die Syltair fliegt vom 29. März bis zum 04. Oktober 2018 nach Hamburg. Zur Seite der Syltair: www.syltair.de